createdAt,value
2019-02-22T00:00:56.937Z,102665.27
2019-02-22T00:02:18.640Z,102664.91
2019-02-22T00:03:23.991Z,102665.62
2019-02-22T00:04:29.663Z,102667.42
2019-02-22T00:05:35.022Z,102666.12
2019-02-22T00:06:39.731Z,102667.98
2019-02-22T00:07:44.749Z,102669.05
2019-02-22T00:08:49.758Z,102671.11
2019-02-22T00:09:54.747Z,102680.32
2019-02-22T00:10:59.865Z,102672.81
2019-02-22T00:12:04.873Z,102676.83
2019-02-22T00:13:10.123Z,102678.47
2019-02-22T00:14:15.178Z,102681.64
2019-02-22T00:15:20.164Z,102681.52
2019-02-22T00:16:25.222Z,102687.23
2019-02-22T00:17:30.570Z,102684.95
2019-02-22T00:18:36.107Z,102685.43
2019-02-22T00:19:41.093Z,102685.47
2019-02-22T00:20:46.658Z,102685.55
2019-02-22T00:21:52.027Z,102692.38
2019-02-22T00:22:57.317Z,102689.23
2019-02-22T00:24:02.141Z,102687.61
2019-02-22T00:25:07.238Z,102687.09
2019-02-22T00:26:12.738Z,102688.38
2019-02-22T00:27:18.321Z,102683.33
2019-02-22T00:28:23.590Z,102686.15
2019-02-22T00:29:29.050Z,102686.65
2019-02-22T00:30:34.303Z,102685.43
2019-02-22T00:31:39.681Z,102691.55
2019-02-22T00:32:44.413Z,102689.88
2019-02-22T00:33:49.470Z,102695.23
2019-02-22T00:34:54.608Z,102688.91
2019-02-22T00:35:59.226Z,102690.83
2019-02-22T00:37:04.456Z,102696.64
2019-02-22T00:38:09.563Z,102697.48
2019-02-22T00:39:14.397Z,102696.72
2019-02-22T00:40:19.711Z,102700.47
2019-02-22T00:41:24.797Z,102703.68
2019-02-22T00:42:29.929Z,102702.00
2019-02-22T00:43:35.602Z,102698.52
2019-02-22T00:44:40.320Z,102710.05
2019-02-22T00:45:45.026Z,102710.12
2019-02-22T00:46:50.320Z,102707.31
2019-02-22T00:47:55.429Z,102707.66
2019-02-22T00:49:01.251Z,102705.80
2019-02-22T00:50:06.346Z,102712.36
2019-02-22T00:51:11.625Z,102711.23
2019-02-22T00:52:16.611Z,102713.04
2019-02-22T00:53:21.337Z,102708.83
2019-02-22T00:54:26.314Z,102711.72
2019-02-22T00:55:31.285Z,102714.98
2019-02-22T00:56:36.656Z,102710.28
2019-02-22T00:57:42.187Z,102711.48
2019-02-22T00:58:47.474Z,102711.64
2019-02-22T00:59:53.038Z,102713.84
2019-02-22T01:00:58.305Z,102715.59
2019-02-22T01:02:03.165Z,102718.17
2019-02-22T01:03:08.434Z,102716.38
2019-02-22T01:04:14.081Z,102718.89
2019-02-22T01:05:19.371Z,102719.88
2019-02-22T01:06:24.669Z,102716.28
2019-02-22T01:07:29.674Z,102714.27
2019-02-22T01:08:34.377Z,102715.06
2019-02-22T01:09:39.720Z,102718.91
2019-02-22T01:10:44.927Z,102709.58
2019-02-22T01:11:50.210Z,102711.89
2019-02-22T01:12:55.763Z,102713.77
2019-02-22T01:14:00.846Z,102714.13
2019-02-22T01:15:05.611Z,102713.70
2019-02-22T01:16:10.618Z,102710.43
2019-02-22T01:17:15.611Z,102705.84
2019-02-22T01:18:21.236Z,102713.85
2019-02-22T01:19:26.681Z,102710.63
2019-02-22T01:20:31.728Z,102715.91
2019-02-22T01:21:36.768Z,102713.45
2019-02-22T01:22:41.522Z,102707.94
2019-02-22T01:23:46.489Z,102712.38
2019-02-22T01:24:51.537Z,102713.64
2019-02-22T01:25:56.257Z,102712.23
2019-02-22T01:27:01.318Z,102710.50
2019-02-22T01:28:06.326Z,102715.88
2019-02-22T01:29:11.338Z,102716.77
2019-02-22T01:30:16.082Z,102719.05
2019-02-22T01:31:20.814Z,102723.98
2019-02-22T01:32:26.076Z,102722.19
2019-02-22T01:33:31.075Z,102726.98
2019-02-22T01:34:36.579Z,102733.18
2019-02-22T01:35:42.169Z,102734.27
2019-02-22T01:36:47.444Z,102733.59
2019-02-22T01:37:52.159Z,102729.18
2019-02-22T01:38:57.527Z,102731.85
2019-02-22T01:40:02.955Z,102735.81
2019-02-22T01:41:08.242Z,102734.53
2019-02-22T01:42:12.954Z,102737.03
2019-02-22T01:43:18.021Z,102732.84
2019-02-22T01:44:26.272Z,102728.66
2019-02-22T01:45:31.288Z,102732.88
2019-02-22T01:46:36.589Z,102731.70
2019-02-22T01:47:41.608Z,102730.34
2019-02-22T01:48:47.279Z,102731.34
2019-02-22T01:49:52.308Z,102730.80
2019-02-22T01:50:57.615Z,102728.03
2019-02-22T01:52:02.622Z,102732.48
2019-02-22T01:53:07.702Z,102730.92
2019-02-22T01:54:12.707Z,102727.64
2019-02-22T01:55:17.704Z,102729.62
2019-02-22T01:56:22.699Z,102733.61
2019-02-22T01:57:27.985Z,102730.38
2019-02-22T01:58:33.571Z,102732.44
2019-02-22T01:59:38.868Z,102732.56
2019-02-22T02:00:43.845Z,102725.61
2019-02-22T02:01:49.123Z,102728.77
2019-02-22T02:02:54.418Z,102728.20
2019-02-22T02:03:59.650Z,102726.48
2019-02-22T02:05:05.113Z,102728.73
2019-02-22T02:06:09.802Z,102732.28
2019-02-22T02:07:14.826Z,102727.86
2019-02-22T02:08:20.100Z,102729.51
2019-02-22T02:09:25.654Z,102737.02
2019-02-22T02:10:30.758Z,102734.39
2019-02-22T02:11:35.766Z,102734.86
2019-02-22T02:12:41.059Z,102735.34
2019-02-22T02:13:46.068Z,102732.41
2019-02-22T02:14:51.098Z,102728.97
2019-02-22T02:15:55.797Z,102735.26
2019-02-22T02:17:02.117Z,102742.73
2019-02-22T02:18:07.190Z,102745.18
2019-02-22T02:19:12.735Z,102742.24
2019-02-22T02:20:17.542Z,102748.79
2019-02-22T02:21:22.478Z,102749.97
2019-02-22T02:22:27.761Z,102746.88
2019-02-22T02:23:32.749Z,102754.31
2019-02-22T02:24:38.284Z,102747.44
2019-02-22T02:25:43.572Z,102742.83
2019-02-22T02:26:48.649Z,102745.36
2019-02-22T02:27:53.650Z,102747.17
2019-02-22T02:28:58.383Z,102744.73
2019-02-22T02:30:03.663Z,102744.05
2019-02-22T02:31:08.649Z,102745.63
2019-02-22T02:32:14.058Z,102747.14
2019-02-22T02:33:19.403Z,102748.84
2019-02-22T02:34:24.722Z,102749.20
2019-02-22T02:35:29.741Z,102745.92
2019-02-22T02:36:34.224Z,102746.86
2019-02-22T02:37:39.255Z,102751.36
2019-02-22T02:38:44.276Z,102748.59
2019-02-22T02:39:49.305Z,102747.84
2019-02-22T02:41:06.853Z,102747.34
2019-02-22T02:42:01.499Z,102755.48
2019-02-22T02:43:06.786Z,102757.52
2019-02-22T02:44:12.207Z,102753.72
2019-02-22T02:45:17.589Z,102758.02
2019-02-22T02:46:23.205Z,102761.87
2019-02-22T02:47:28.501Z,102761.77
2019-02-22T02:48:33.585Z,102755.17
2019-02-22T02:49:39.022Z,102752.67
2019-02-22T02:50:44.152Z,102756.83
2019-02-22T02:51:49.530Z,102751.92
2019-02-22T02:52:54.842Z,102760.70
2019-02-22T02:54:00.187Z,102752.34
2019-02-22T02:55:04.907Z,102758.16
2019-02-22T02:56:10.591Z,102761.64
2019-02-22T02:57:16.261Z,102759.02
2019-02-22T02:58:21.171Z,102758.25
2019-02-22T02:59:26.815Z,102754.80
2019-02-22T03:00:31.628Z,102757.13
2019-02-22T03:01:36.982Z,102752.88
2019-02-22T03:02:42.073Z,102754.38
2019-02-22T03:03:47.702Z,102757.79
2019-02-22T03:04:52.780Z,102749.75
2019-02-22T03:06:15.378Z,102751.22
2019-02-22T03:07:38.156Z,102754.01
2019-02-22T03:08:43.542Z,102753.75
2019-02-22T03:09:48.968Z,102757.60
2019-02-22T03:10:56.305Z,102755.77
2019-02-22T03:12:00.884Z,102757.23
2019-02-22T03:13:05.958Z,102753.72
2019-02-22T03:14:10.943Z,102753.62
2019-02-22T03:15:17.254Z,102753.13
2019-02-22T03:16:22.341Z,102754.33
2019-02-22T03:17:27.566Z,102751.24
2019-02-22T03:18:33.373Z,102752.97
2019-02-22T03:19:38.596Z,102756.95
2019-02-22T03:20:43.384Z,102757.03
2019-02-22T03:21:48.474Z,102760.52
2019-02-22T03:22:53.753Z,102765.63
2019-02-22T03:23:58.860Z,102762.21
2019-02-22T03:25:03.862Z,102764.85
2019-02-22T03:26:08.662Z,102763.31
2019-02-22T03:27:14.065Z,102758.19
2019-02-22T03:28:19.883Z,102767.42
2019-02-22T03:29:25.635Z,102766.76
2019-02-22T03:30:31.309Z,102770.94
2019-02-22T03:31:37.374Z,102770.18
2019-02-22T03:32:43.352Z,102763.78
2019-02-22T03:33:48.729Z,102766.50
2019-02-22T03:34:53.737Z,102762.35
2019-02-22T03:35:59.083Z,102769.91
2019-02-22T03:37:04.393Z,102776.42
2019-02-22T03:38:09.223Z,102774.35
2019-02-22T03:39:14.422Z,102776.29
2019-02-22T03:40:19.550Z,102780.26
2019-02-22T03:41:32.956Z,102771.30
2019-02-22T03:42:32.696Z,102779.30
2019-02-22T03:43:38.777Z,102779.65
2019-02-22T03:44:43.616Z,102781.66
2019-02-22T03:45:49.191Z,102782.11
2019-02-22T03:46:53.667Z,102786.26
2019-02-22T03:47:58.737Z,102787.54
2019-02-22T03:49:04.450Z,102778.59
2019-02-22T03:50:09.192Z,102778.86
2019-02-22T03:51:14.631Z,102778.09
2019-02-22T03:52:38.285Z,102781.69
2019-02-22T03:53:47.809Z,102782.11
2019-02-22T03:54:53.111Z,102792.33
2019-02-22T03:55:58.387Z,102793.59
2019-02-22T03:57:03.495Z,102783.95
2019-02-22T03:58:08.674Z,102793.09
2019-02-22T03:59:13.877Z,102794.03
2019-02-22T04:00:19.232Z,102797.32
2019-02-22T04:01:24.025Z,102787.72
2019-02-22T04:02:29.650Z,102794.27
2019-02-22T04:03:34.985Z,102793.20
2019-02-22T04:04:40.338Z,102796.52
2019-02-22T04:05:45.516Z,102796.27
2019-02-22T04:06:50.640Z,102792.98
2019-02-22T04:07:55.710Z,102794.91
2019-02-22T04:09:01.485Z,102795.39
2019-02-22T04:10:06.127Z,102802.45
2019-02-22T04:11:11.807Z,102801.81
2019-02-22T04:12:17.112Z,102800.31
2019-02-22T04:13:22.421Z,102805.84
2019-02-22T04:14:27.750Z,102808.44
2019-02-22T04:15:32.767Z,102803.22
2019-02-22T04:16:37.766Z,102809.33
2019-02-22T04:17:42.481Z,102812.83
2019-02-22T04:18:47.788Z,102807.50
2019-02-22T04:19:53.236Z,102812.27
2019-02-22T04:20:58.376Z,102809.87
2019-02-22T04:22:03.719Z,102807.91
2019-02-22T04:23:09.034Z,102806.50
2019-02-22T04:24:14.388Z,102808.58
2019-02-22T04:25:19.439Z,102815.55
2019-02-22T04:26:25.028Z,102812.92
2019-02-22T04:27:30.329Z,102814.84
2019-02-22T04:28:35.708Z,102812.50
2019-02-22T04:29:40.813Z,102815.08
2019-02-22T04:30:46.128Z,102817.77
2019-02-22T04:31:50.859Z,102818.56
2019-02-22T04:32:55.859Z,102815.06
2019-02-22T04:34:01.237Z,102818.77
2019-02-22T04:35:06.127Z,102824.92
2019-02-22T04:36:10.856Z,102824.28
2019-02-22T04:37:15.856Z,102835.59
2019-02-22T04:38:20.631Z,102826.80
2019-02-22T04:39:26.358Z,102829.56
2019-02-22T04:40:31.605Z,102835.21
2019-02-22T04:41:36.587Z,102825.72
2019-02-22T04:42:41.959Z,102830.13
2019-02-22T04:43:47.314Z,102829.81
2019-02-22T04:44:52.072Z,102830.22
2019-02-22T04:45:57.147Z,102831.86
2019-02-22T04:47:02.764Z,102835.12
2019-02-22T04:48:07.560Z,102837.68
2019-02-22T04:49:12.579Z,102841.02
2019-02-22T04:50:18.161Z,102838.66
2019-02-22T04:51:23.453Z,102838.98
2019-02-22T04:52:28.820Z,102838.86
2019-02-22T04:53:34.110Z,102836.95
2019-02-22T04:54:39.433Z,102835.77
2019-02-22T04:55:44.730Z,102838.86
2019-02-22T04:56:49.706Z,102836.20
2019-02-22T04:57:54.829Z,102837.32
2019-02-22T04:59:00.439Z,102839.08
2019-02-22T05:00:05.015Z,102838.53
2019-02-22T05:01:10.029Z,102837.95
2019-02-22T05:02:15.404Z,102842.60
2019-02-22T05:03:20.639Z,102842.32
2019-02-22T05:04:25.928Z,102838.36
2019-02-22T05:05:30.966Z,102844.41
2019-02-22T05:06:36.257Z,102847.98
2019-02-22T05:07:41.533Z,102851.57
2019-02-22T05:08:47.127Z,102849.09
2019-02-22T05:09:52.525Z,102849.07
2019-02-22T05:10:57.507Z,102850.19
2019-02-22T05:12:10.826Z,102848.38
2019-02-22T05:13:09.882Z,102847.73
2019-02-22T05:14:15.215Z,102847.53
2019-02-22T05:15:20.887Z,102850.25
2019-02-22T05:16:25.871Z,102845.95
2019-02-22T05:17:30.813Z,102854.45
2019-02-22T05:18:35.794Z,102849.38
2019-02-22T05:19:41.226Z,102850.73
2019-02-22T05:20:46.518Z,102854.73
2019-02-22T05:21:51.777Z,102854.67
2019-02-22T05:23:03.752Z,102850.84
2019-02-22T05:24:03.840Z,102854.30
2019-02-22T05:25:08.390Z,102851.34
2019-02-22T05:26:12.829Z,102855.17
2019-02-22T05:27:18.144Z,102859.34
2019-02-22T05:28:23.111Z,102858.20
2019-02-22T05:29:28.062Z,102857.72
2019-02-22T05:30:32.808Z,102862.33
2019-02-22T05:31:37.795Z,102860.41
2019-02-22T05:32:42.815Z,102867.33
2019-02-22T05:33:48.368Z,102872.36
2019-02-22T05:34:53.568Z,102870.00
2019-02-22T05:35:59.135Z,102871.08
2019-02-22T05:37:03.915Z,102866.36
2019-02-22T05:38:08.629Z,102863.80
2019-02-22T05:39:18.990Z,102869.63
2019-02-22T05:40:20.592Z,102866.77
2019-02-22T05:41:25.576Z,102865.66
2019-02-22T05:42:31.118Z,102870.77
2019-02-22T05:43:36.512Z,102875.06
2019-02-22T05:44:42.094Z,102876.73
2019-02-22T05:45:46.844Z,102884.57
2019-02-22T05:47:00.315Z,102878.97
2019-02-22T05:47:58.814Z,102882.45
2019-02-22T05:49:06.715Z,102879.32
2019-02-22T05:50:11.684Z,102884.31
2019-02-22T05:51:16.930Z,102887.06
2019-02-22T05:52:23.373Z,102890.89
2019-02-22T05:53:28.075Z,102889.28
2019-02-22T05:54:33.413Z,102889.44
2019-02-22T05:55:39.573Z,102893.33
2019-02-22T05:56:44.647Z,102891.00
2019-02-22T05:57:49.619Z,102896.52
2019-02-22T05:58:54.580Z,102895.63
2019-02-22T05:59:59.870Z,102899.92
2019-02-22T06:01:06.877Z,102896.03
2019-02-22T06:02:14.340Z,102910.71
2019-02-22T06:03:18.618Z,102903.84
2019-02-22T06:04:23.339Z,102912.30
2019-02-22T06:05:28.578Z,102908.58
2019-02-22T06:06:33.876Z,102906.98
2019-02-22T06:07:38.886Z,102904.87
2019-02-22T06:08:43.861Z,102912.02
2019-02-22T06:09:48.873Z,102906.45
2019-02-22T06:10:53.859Z,102908.55
2019-02-22T06:11:58.563Z,102909.13
2019-02-22T06:13:06.155Z,102909.51
2019-02-22T06:14:11.475Z,102908.25
2019-02-22T06:15:16.455Z,102911.05
2019-02-22T06:16:22.024Z,102914.06
2019-02-22T06:17:27.076Z,102912.56
2019-02-22T06:18:32.083Z,102914.01
2019-02-22T06:19:37.093Z,102917.62
2019-02-22T06:20:42.468Z,102917.09
2019-02-22T06:21:48.072Z,102919.78
2019-02-22T06:22:53.345Z,102922.42
2019-02-22T06:23:58.590Z,102921.47
2019-02-22T06:25:04.360Z,102924.08
2019-02-22T06:26:09.379Z,102919.28
2019-02-22T06:27:14.503Z,102926.04
2019-02-22T06:28:19.715Z,102926.62
2019-02-22T06:29:24.764Z,102925.67
2019-02-22T06:30:29.470Z,102936.93
2019-02-22T06:31:33.923Z,102926.63
2019-02-22T06:32:42.162Z,102936.46
2019-02-22T06:33:46.450Z,102940.11
2019-02-22T06:34:51.473Z,102930.28
2019-02-22T06:35:56.444Z,102941.42
2019-02-22T06:37:02.474Z,102943.86
2019-02-22T06:38:07.898Z,102944.89
2019-02-22T06:39:12.977Z,102942.62
2019-02-22T06:40:17.984Z,102946.13
2019-02-22T06:41:23.609Z,102942.98
2019-02-22T06:42:28.923Z,102946.84
2019-02-22T06:43:33.923Z,102938.90
2019-02-22T06:44:39.242Z,102943.20
2019-02-22T06:45:44.315Z,102946.39
2019-02-22T06:46:50.078Z,102956.24
2019-02-22T06:47:55.133Z,102948.03
2019-02-22T06:49:00.152Z,102947.09
2019-02-22T06:50:11.200Z,102950.17
2019-02-22T06:51:15.991Z,102952.26
2019-02-22T06:52:21.651Z,102948.06
2019-02-22T06:53:26.677Z,102946.92
2019-02-22T06:54:32.261Z,102951.50
2019-02-22T06:55:37.639Z,102952.91
2019-02-22T06:56:42.678Z,102946.95
2019-02-22T06:57:48.033Z,102955.14
2019-02-22T06:58:53.161Z,102953.36
2019-02-22T06:59:58.363Z,102951.20
2019-02-22T07:01:03.402Z,102956.67
2019-02-22T07:02:08.733Z,102960.42
2019-02-22T07:03:13.471Z,102962.13
2019-02-22T07:04:18.487Z,102959.70
2019-02-22T07:05:23.829Z,102962.83
2019-02-22T07:06:28.582Z,102962.34
2019-02-22T07:07:33.581Z,102964.79
2019-02-22T07:08:38.620Z,102968.87
2019-02-22T07:09:44.145Z,102969.05
2019-02-22T07:11:05.049Z,102967.09
2019-02-22T07:12:14.136Z,102970.06
2019-02-22T07:13:19.797Z,102973.34
2019-02-22T07:14:25.095Z,102964.96
2019-02-22T07:15:31.849Z,102965.44
2019-02-22T07:16:37.156Z,102967.22
2019-02-22T07:17:42.145Z,102971.45
2019-02-22T07:18:47.139Z,102967.74
2019-02-22T07:19:51.843Z,102968.16
2019-02-22T07:20:56.859Z,102973.75
2019-02-22T07:22:01.870Z,102971.70
2019-02-22T07:23:06.915Z,102970.48
2019-02-22T07:24:12.234Z,102973.58
2019-02-22T07:25:17.769Z,102977.23
2019-02-22T07:26:22.785Z,102976.03
2019-02-22T07:27:28.341Z,102980.50
2019-02-22T07:28:33.312Z,102978.62
2019-02-22T07:29:38.571Z,102988.16
2019-02-22T07:30:43.555Z,102980.41
2019-02-22T07:31:48.534Z,102983.11
2019-02-22T07:32:53.901Z,102983.70
2019-02-22T07:33:58.813Z,102986.08
2019-02-22T07:35:04.249Z,102986.53
2019-02-22T07:36:09.017Z,102987.78
2019-02-22T07:37:13.783Z,102994.34
2019-02-22T07:38:19.046Z,102993.30
2019-02-22T07:39:27.913Z,103000.45
2019-02-22T07:40:31.324Z,103002.31
2019-02-22T07:41:36.598Z,103002.28
2019-02-22T07:42:42.165Z,103008.44
2019-02-22T07:43:47.133Z,103008.16
2019-02-22T07:44:52.720Z,103009.41
2019-02-22T07:45:57.700Z,103012.63
2019-02-22T07:47:02.761Z,103011.22
2019-02-22T07:48:08.007Z,103013.73
2019-02-22T07:49:15.991Z,103019.14
2019-02-22T07:50:21.282Z,103017.48
2019-02-22T07:51:25.987Z,103022.39
2019-02-22T07:52:30.684Z,103016.23
2019-02-22T07:53:35.742Z,103015.59
2019-02-22T07:54:41.021Z,103013.69
2019-02-22T07:55:46.369Z,103014.04
2019-02-22T07:56:51.054Z,103022.78
2019-02-22T07:57:55.519Z,103022.44
2019-02-22T07:59:03.001Z,103025.27
2019-02-22T08:00:09.445Z,103031.52
2019-02-22T08:01:14.743Z,103027.72
2019-02-22T08:02:20.276Z,103036.87
2019-02-22T08:03:25.567Z,103034.33
2019-02-22T08:04:30.243Z,103037.70
2019-02-22T08:05:35.583Z,103040.76
2019-02-22T08:06:42.404Z,103041.22
2019-02-22T08:07:46.991Z,103036.78
2019-02-22T08:08:52.221Z,103042.83
2019-02-22T08:09:57.480Z,103045.91
2019-02-22T08:11:02.467Z,103047.89
2019-02-22T08:12:07.160Z,103047.45
2019-02-22T08:13:19.700Z,103052.66
2019-02-22T08:14:19.133Z,103050.39
2019-02-22T08:15:24.412Z,103057.39
2019-02-22T08:16:29.066Z,103058.81
2019-02-22T08:17:34.325Z,103058.70
2019-02-22T08:18:40.205Z,103064.69
2019-02-22T08:19:45.179Z,103062.67
2019-02-22T08:20:49.926Z,103070.51
2019-02-22T08:21:55.174Z,103064.20
2019-02-22T08:22:59.889Z,103067.05
2019-02-22T08:24:05.013Z,103058.43
2019-02-22T08:25:09.974Z,103067.86
2019-02-22T08:26:15.657Z,103068.50
2019-02-22T08:27:21.120Z,103068.23
2019-02-22T08:28:25.586Z,103079.69
2019-02-22T08:29:30.272Z,103085.88
2019-02-22T08:30:35.583Z,103086.65
2019-02-22T08:31:40.269Z,103086.27
2019-02-22T08:32:45.822Z,103090.91
2019-02-22T08:33:52.852Z,103088.38
2019-02-22T08:34:57.832Z,103092.70
2019-02-22T08:36:02.775Z,103097.97
2019-02-22T08:37:07.628Z,103093.16
2019-02-22T08:38:12.295Z,103098.58
2019-02-22T08:39:17.764Z,103098.45
2019-02-22T08:40:22.715Z,103103.30
2019-02-22T08:41:27.397Z,103105.52
2019-02-22T08:42:32.689Z,103109.03
2019-02-22T08:43:37.926Z,103108.39
2019-02-22T08:44:43.313Z,103109.36
2019-02-22T08:45:48.289Z,103109.44
2019-02-22T08:46:53.571Z,103111.63
2019-02-22T08:47:58.569Z,103113.92
2019-02-22T08:49:03.379Z,103114.40
2019-02-22T08:50:08.486Z,103111.28
2019-02-22T08:51:13.461Z,103113.58
2019-02-22T08:52:18.714Z,103120.38
2019-02-22T08:53:23.623Z,103122.99
2019-02-22T08:54:28.906Z,103119.48
2019-02-22T08:55:36.598Z,103119.11
2019-02-22T08:56:41.271Z,103119.73
2019-02-22T08:57:45.966Z,103118.64
2019-02-22T08:58:51.211Z,103120.68
2019-02-22T08:59:56.236Z,103126.24
2019-02-22T09:01:01.630Z,103125.04
2019-02-22T09:02:06.339Z,103122.28
2019-02-22T09:03:11.311Z,103131.67
2019-02-22T09:04:16.004Z,103126.92
2019-02-22T09:05:20.443Z,103130.66
2019-02-22T09:06:26.009Z,103132.63
2019-02-22T09:07:30.970Z,103137.22
2019-02-22T09:08:36.230Z,103135.38
2019-02-22T09:09:41.218Z,103130.48
2019-02-22T09:10:46.213Z,103134.84
2019-02-22T09:11:51.192Z,103132.89
2019-02-22T09:12:56.561Z,103137.86
2019-02-22T09:14:01.333Z,103136.25
2019-02-22T09:15:06.186Z,103142.09
2019-02-22T09:16:11.159Z,103145.66
2019-02-22T09:17:16.261Z,103144.84
2019-02-22T09:18:21.538Z,103149.23
2019-02-22T09:19:26.250Z,103147.41
2019-02-22T09:20:30.955Z,103148.83
2019-02-22T09:21:35.685Z,103145.95
2019-02-22T09:22:40.676Z,103141.01
2019-02-22T09:23:45.171Z,103145.73
2019-02-22T09:24:49.912Z,103143.41
2019-02-22T09:25:54.652Z,103151.97
2019-02-22T09:26:59.949Z,103150.84
2019-02-22T09:28:05.265Z,103153.52
2019-02-22T09:29:10.225Z,103151.20
2019-02-22T09:30:15.184Z,103149.81
2019-02-22T09:31:19.887Z,103159.52
2019-02-22T09:32:25.216Z,103153.47
2019-02-22T09:33:30.208Z,103150.62
2019-02-22T09:34:35.089Z,103153.27
2019-02-22T09:35:40.022Z,103159.28
2019-02-22T09:36:44.987Z,103154.12
2019-02-22T09:37:49.942Z,103153.84
2019-02-22T09:38:55.218Z,103160.54
2019-02-22T09:40:00.349Z,103156.16
2019-02-22T09:41:07.817Z,103161.84
2019-02-22T09:42:12.902Z,103162.26
2019-02-22T09:43:18.006Z,103159.98
2019-02-22T09:44:23.261Z,103156.58
2019-02-22T09:45:27.719Z,103157.81
2019-02-22T09:46:32.962Z,103161.41
2019-02-22T09:47:37.997Z,103164.38
2019-02-22T09:48:43.231Z,103162.97
2019-02-22T09:49:48.302Z,103154.22
2019-02-22T09:50:53.285Z,103156.13
2019-02-22T09:51:58.549Z,103159.21
2019-02-22T09:53:04.621Z,103160.89
2019-02-22T09:54:09.658Z,103154.41
2019-02-22T09:55:14.096Z,103155.52
2019-02-22T09:56:19.348Z,103152.09
2019-02-22T09:57:24.373Z,103156.36
2019-02-22T09:58:29.601Z,103162.94
2019-02-22T09:59:34.640Z,103163.37
2019-02-22T10:00:39.689Z,103164.61
2019-02-22T10:01:44.957Z,103166.75
2019-02-22T10:02:50.216Z,103163.81
2019-02-22T10:03:55.485Z,103165.89
2019-02-22T10:05:00.516Z,103159.38
2019-02-22T10:06:05.261Z,103163.59
2019-02-22T10:07:10.031Z,103161.97
2019-02-22T10:08:15.316Z,103165.22
2019-02-22T10:09:20.305Z,103165.59
2019-02-22T10:10:25.321Z,103165.78
2019-02-22T10:11:30.598Z,103170.40
2019-02-22T10:12:35.577Z,103167.93
2019-02-22T10:13:40.823Z,103167.61
2019-02-22T10:14:45.786Z,103166.03
2019-02-22T10:15:50.499Z,103166.97
2019-02-22T10:16:55.506Z,103170.37
2019-02-22T10:18:00.510Z,103169.14
2019-02-22T10:19:05.815Z,103169.33
2019-02-22T10:20:10.859Z,103166.91
2019-02-22T10:21:16.166Z,103168.68
2019-02-22T10:22:20.883Z,103173.23
2019-02-22T10:23:26.175Z,103170.19
2019-02-22T10:24:31.166Z,103164.03
2019-02-22T10:25:36.146Z,103167.11
2019-02-22T10:26:40.857Z,103164.91
2019-02-22T10:27:46.114Z,103167.47
2019-02-22T10:28:51.396Z,103169.69
2019-02-22T10:29:56.135Z,103167.44
2019-02-22T10:31:00.968Z,103174.53
2019-02-22T10:32:05.886Z,103168.98
2019-02-22T10:33:10.845Z,103171.02
2019-02-22T10:34:16.532Z,103174.48
2019-02-22T10:35:21.308Z,103170.06
2019-02-22T10:36:25.998Z,103171.86
2019-02-22T10:37:30.785Z,103180.38
2019-02-22T10:38:36.103Z,103179.46
2019-02-22T10:39:40.869Z,103178.84
2019-02-22T10:40:45.987Z,103187.31
2019-02-22T10:41:51.255Z,103187.75
2019-02-22T10:42:55.949Z,103188.17
2019-02-22T10:44:01.507Z,103195.99
2019-02-22T10:45:06.741Z,103192.23
2019-02-22T10:46:12.010Z,103184.67
2019-02-22T10:47:16.699Z,103179.70
2019-02-22T10:48:21.760Z,103174.83
2019-02-22T10:49:26.627Z,103177.27
2019-02-22T10:50:31.883Z,103181.53
2019-02-22T10:51:37.007Z,103172.93
2019-02-22T10:52:41.759Z,103172.73
2019-02-22T10:53:47.051Z,103177.23
2019-02-22T10:54:52.326Z,103180.19
2019-02-22T10:55:57.457Z,103180.39
2019-02-22T10:57:02.153Z,103184.52
2019-02-22T10:58:07.129Z,103184.52
2019-02-22T10:59:11.863Z,103189.44
2019-02-22T11:00:16.486Z,103191.82
2019-02-22T11:01:21.399Z,103190.58
2019-02-22T11:02:26.656Z,103192.66
2019-02-22T11:03:31.681Z,103189.09
2019-02-22T11:04:36.761Z,103197.09
2019-02-22T11:05:42.084Z,103198.98
2019-02-22T11:06:47.601Z,103198.21
2019-02-22T11:07:52.844Z,103191.09
2019-02-22T11:08:57.631Z,103189.79
2019-02-22T11:10:02.646Z,103195.08
2019-02-22T11:11:07.931Z,103197.75
2019-02-22T11:12:12.930Z,103199.92
2019-02-22T11:13:17.640Z,103196.84
2019-02-22T11:14:29.306Z,103195.98
2019-02-22T11:15:29.667Z,103196.02
2019-02-22T11:16:34.940Z,103196.43
2019-02-22T11:17:40.453Z,103191.58
2019-02-22T11:18:45.728Z,103190.72
2019-02-22T11:19:51.026Z,103185.47
2019-02-22T11:20:56.033Z,103192.92
2019-02-22T11:22:00.897Z,103186.75
2019-02-22T11:23:06.397Z,103186.77
2019-02-22T11:24:11.155Z,103191.59
2019-02-22T11:25:16.180Z,103190.61
2019-02-22T11:26:21.186Z,103187.48
2019-02-22T11:27:26.462Z,103190.58
2019-02-22T11:28:31.740Z,103187.62
2019-02-22T11:29:36.422Z,103191.56
2019-02-22T11:30:41.459Z,103189.83
2019-02-22T11:31:46.429Z,103192.47
2019-02-22T11:32:51.393Z,103193.77
2019-02-22T11:33:57.498Z,103191.92
2019-02-22T11:35:02.520Z,103191.09
2019-02-22T11:36:07.262Z,103198.80
2019-02-22T11:37:12.261Z,103202.23
2019-02-22T11:38:17.006Z,103198.89
2019-02-22T11:39:22.321Z,103195.94
2019-02-22T11:40:27.067Z,103201.19
2019-02-22T11:41:32.039Z,103197.91
2019-02-22T11:42:37.331Z,103201.69
2019-02-22T11:43:42.677Z,103193.38
2019-02-22T11:44:48.143Z,103192.03
2019-02-22T11:45:53.424Z,103189.86
2019-02-22T11:46:57.920Z,103196.40
2019-02-22T11:48:09.034Z,103192.89
2019-02-22T11:49:09.358Z,103187.23
2019-02-22T11:50:14.376Z,103190.75
2019-02-22T11:51:19.354Z,103190.27
2019-02-22T11:52:24.422Z,103192.46
2019-02-22T11:53:29.408Z,103194.27
2019-02-22T11:54:34.386Z,103192.09
2019-02-22T11:55:38.913Z,103196.86
2019-02-22T11:56:43.723Z,103195.58
2019-02-22T11:57:48.916Z,103197.31
2019-02-22T11:58:53.908Z,103196.86
2019-02-22T11:59:58.593Z,103197.33
2019-02-22T12:01:03.578Z,103198.17
2019-02-22T12:02:08.544Z,103203.88
2019-02-22T12:03:24.291Z,103193.05
2019-02-22T12:04:20.788Z,103192.92
2019-02-22T12:05:25.746Z,103185.48
2019-02-22T12:06:30.721Z,103192.92
2019-02-22T12:07:35.424Z,103196.47
2019-02-22T12:08:40.469Z,103192.50
2019-02-22T12:09:45.646Z,103189.02
2019-02-22T12:10:50.635Z,103187.23
2019-02-22T12:11:55.936Z,103191.63
2019-02-22T12:13:01.222Z,103190.30
2019-02-22T12:14:06.253Z,103185.91
2019-02-22T12:15:11.036Z,103188.09
2019-02-22T12:16:16.008Z,103188.13
2019-02-22T12:17:21.287Z,103193.83
2019-02-22T12:18:26.647Z,103196.01
2019-02-22T12:19:31.904Z,103196.44
2019-02-22T12:20:36.866Z,103192.92
2019-02-22T12:21:41.848Z,103197.74
2019-02-22T12:22:47.132Z,103203.87
2019-02-22T12:23:53.011Z,103194.29
2019-02-22T12:24:58.614Z,103201.24
2019-02-22T12:26:03.614Z,103194.12